Time;durP1;ratioP1;P1;durP2;ratioP2;P2;SDS_P1;SDS_P2;PMS_P1;PMS_P2;Temp;Humidity;BMP_temperature;BMP_pressure;BME280_temperature;BME280_humidity;BME280_pressure;Samples;Min_cycle;Max_cycle;Signal;HPM_P1;HPM_P2
2022/02/09 00:00:42;;;;;;;0.40;0.40;;;;;;;9.17;100.00;101619.16;5034786;28;20480;-51
2022/02/09 00:03:20;;;;;;;0.30;0.20;;;;;;;9.21;100.00;101620.97;5034639;28;20494;-51
2022/02/09 00:08:14;;;;;;;0.30;0.20;;;;;;;9.24;100.00;101614.75;5034766;28;20447;-51
2022/02/09 00:10:44;;;;;;;0.30;0.20;;;;;;;9.16;100.00;101612.09;5034503;28;20482;-50
2022/02/09 00:13:34;;;;;;;0.30;0.20;;;;;;;9.24;100.00;101615.63;5034616;28;20483;-51
2022/02/09 00:19:06;;;;;;;0.30;0.20;;;;;;;9.27;100.00;101605.00;4997897;28;20496;-51
2022/02/09 00:32:16;;;;;;;0.30;0.20;;;;;;;9.08;100.00;101614.78;5034045;28;20972;-51
2022/02/09 00:37:37;;;;;;;0.30;0.20;;;;;;;9.17;100.00;101604.13;5022254;28;20865;-51
2022/02/09 01:41:18;;;;;;;0.30;0.20;;;;;;;9.15;100.00;101608.56;5020503;28;20547;-54
2022/02/09 01:56:55;;;;;;;0.30;0.30;;;;;;;8.98;100.00;101590.91;5029743;28;20589;-54
2022/02/09 01:59:22;;;;;;;0.30;0.20;;;;;;;8.99;100.00;101579.41;5038996;28;20541;-54
2022/02/09 02:01:49;;;;;;;0.30;0.17;;;;;;;8.99;100.00;101575.00;5035293;28;20488;-54
2022/02/09 02:04:15;;;;;;;0.30;0.10;;;;;;;8.97;100.00;101578.53;5030082;28;20873;-54
2022/02/09 02:06:44;;;;;;;0.30;0.20;;;;;;;8.96;100.00;101576.78;5047932;28;20831;-54
2022/02/09 02:09:12;;;;;;;0.30;0.20;;;;;;;8.94;100.00;101567.94;5038489;28;20452;-54
2022/02/09 02:11:50;;;;;;;0.40;0.40;;;;;;;8.96;100.00;101577.66;5041985;28;20987;-54
2022/02/09 02:14:40;;;;;;;0.30;0.10;;;;;;;9.04;100.00;101570.56;5045725;28;20501;-54
2022/02/09 02:19:46;;;;;;;0.30;0.20;;;;;;;8.88;100.00;101555.56;5043098;28;20987;-54
2022/02/09 02:23:16;;;;;;;0.30;0.20;;;;;;;8.87;100.00;101565.28;5033387;28;20829;-54
2022/02/09 02:28:16;;;;;;;0.30;0.20;;;;;;;8.93;100.00;101561.75;5042990;28;20474;-54
2022/02/09 02:31:11;;;;;;;0.30;0.20;;;;;;;8.96;100.00;101563.53;5045542;28;20464;-54
2022/02/09 03:08:33;;;;;;;0.30;0.20;;;;;;;8.93;100.00;101529.06;5026749;28;20974;-54
2022/02/09 03:14:12;;;;;;;1.37;0.93;;;;;;;8.82;100.00;101526.41;4996847;28;20534;-55
2022/02/09 03:16:44;;;;;;;0.30;0.20;;;;;;;8.87;100.00;101520.22;4997134;28;20492;-54
2022/02/09 03:27:42;;;;;;;0.20;0.20;;;;;;;8.92;100.00;101520.22;5048785;28;20471;-54
2022/02/09 03:44:22;;;;;;;1.13;1.13;;;;;;;8.76;100.00;101511.38;5032273;28;20447;-54
2022/02/09 03:52:07;;;;;;;0.30;0.20;;;;;;;8.90;100.00;101506.94;5048360;28;20995;-54
2022/02/09 03:54:42;;;;;;;0.30;0.20;;;;;;;8.85;100.00;101500.78;5048092;28;20954;-55
2022/02/09 03:57:23;;;;;;;0.30;0.20;;;;;;;8.88;100.00;101495.47;5045401;28;20551;-55
2022/02/09 03:59:50;;;;;;;0.83;0.83;;;;;;;8.93;100.00;101492.81;5041321;28;21053;-54
2022/02/09 04:02:17;;;;;;;0.30;0.13;;;;;;;8.86;100.00;101497.25;5042134;28;20948;-54
2022/02/09 04:04:46;;;;;;;0.30;0.20;;;;;;;8.88;100.00;101500.75;5048008;28;20483;-55
2022/02/09 04:07:13;;;;;;;0.30;0.20;;;;;;;8.91;100.00;101499.91;5048191;28;20439;-55
2022/02/09 04:09:46;;;;;;;0.30;0.20;;;;;;;8.93;100.00;101492.81;5028040;28;20524;-54
2022/02/09 04:12:40;;;;;;;0.30;0.20;;;;;;;8.89;100.00;101489.28;5041142;28;20998;-55
2022/02/09 04:15:29;;;;;;;0.30;0.20;;;;;;;8.89;100.00;101488.38;5043913;28;20821;-55
2022/02/09 04:18:14;;;;;;;0.30;0.20;;;;;;;8.87;100.00;101487.50;5028783;28;20533;-54
2022/02/09 04:37:31;;;;;;;0.30;0.10;;;;;;;8.99;100.00;101481.31;5042126;28;20540;-55
2022/02/09 04:40:10;;;;;;;0.30;0.20;;;;;;;8.83;100.00;101464.56;5040557;28;20460;-55
2022/02/09 04:56:48;;;;;;;1.80;1.73;;;;;;;8.68;100.00;101451.34;4985926;28;20519;-55
2022/02/09 05:26:19;;;;;;;0.20;0.20;;;;;;;8.71;100.00;101477.84;5044893;28;20452;-54
2022/02/09 05:28:46;;;;;;;0.30;0.20;;;;;;;8.69;100.00;101476.97;5046770;28;20483;-54
2022/02/09 05:31:12;;;;;;;0.30;0.20;;;;;;;8.66;100.00;101483.16;5043866;28;20525;-54
2022/02/09 05:33:39;;;;;;;0.30;0.20;;;;;;;8.84;100.00;101482.22;5039528;28;20455;-54
2022/02/09 05:36:06;;;;;;;0.30;0.20;;;;;;;8.66;100.00;101479.63;5042364;28;20482;-55
2022/02/09 05:38:33;;;;;;;0.30;0.30;;;;;;;8.51;100.00;101480.53;5046265;28;20515;-55
2022/02/09 05:41:00;;;;;;;0.20;0.20;;;;;;;8.57;100.00;101486.69;5033316;28;20471;-55
2022/02/09 05:43:27;;;;;;;0.30;0.20;;;;;;;8.53;100.00;101477.00;5046439;28;20447;-54
2022/02/09 05:51:12;;;;;;;0.30;0.20;;;;;;;8.50;100.00;101490.25;5039273;28;20499;-55
2022/02/09 05:56:20;;;;;;;0.30;0.20;;;;;;;8.45;100.00;101486.69;5045928;28;20451;-55
2022/02/09 05:59:03;;;;;;;0.30;0.20;;;;;;;8.35;100.00;101479.63;5043907;28;20522;-54
2022/02/09 06:01:30;;;;;;;0.30;0.20;;;;;;;8.35;100.00;101476.97;5025936;28;20446;-54
2022/02/09 06:03:57;;;;;;;0.50;0.50;;;;;;;8.43;100.00;101484.94;5039527;28;20498;-54
2022/02/09 06:06:23;;;;;;;0.50;0.50;;;;;;;8.49;100.00;101493.75;5030024;28;20943;-55
2022/02/09 06:08:50;;;;;;;0.30;0.20;;;;;;;8.58;100.00;101490.22;5038977;28;20483;-54
2022/02/09 06:11:41;;;;;;;0.30;0.20;;;;;;;8.56;100.00;101487.56;5039194;28;20900;-54
2022/02/09 06:22:03;;;;;;;0.20;0.20;;;;;;;8.61;100.00;101480.50;5038783;28;20448;-54
2022/02/09 06:24:31;;;;;;;0.23;0.20;;;;;;;8.60;100.00;101477.84;5043124;28;20474;-55
2022/02/09 06:26:58;;;;;;;0.63;0.63;;;;;;;8.56;100.00;101486.69;5045574;28;20490;-54
2022/02/09 06:29:24;;;;;;;0.30;0.20;;;;;;;8.64;100.00;101484.94;5041713;28;20495;-54
2022/02/09 06:31:51;;;;;;;0.30;0.20;;;;;;;8.64;100.00;101481.41;5038731;28;21023;-54
2022/02/09 06:34:20;;;;;;;0.30;0.20;;;;;;;8.57;100.00;101484.03;5042901;28;20452;-54
2022/02/09 06:37:00;;;;;;;0.30;0.20;;;;;;;8.62;100.00;101484.03;5037121;28;20458;-55
2022/02/09 06:39:28;;;;;;;0.20;0.20;;;;;;;8.74;100.00;101494.59;5040780;28;20495;-54
2022/02/09 06:41:55;;;;;;;0.40;0.40;;;;;;;8.69;100.00;101488.44;5045725;28;20474;-54
2022/02/09 06:44:25;;;;;;;0.30;0.20;;;;;;;8.76;100.00;101484.88;5044476;28;20454;-55
2022/02/09 06:46:52;;;;;;;0.20;0.10;;;;;;;8.71;100.00;101483.13;5038608;28;20456;-55
2022/02/09 06:49:18;;;;;;;25.97;1.43;;;;;;;8.71;100.00;101489.31;5039467;28;20495;-55
2022/02/09 06:51:47;;;;;;;0.30;0.20;;;;;;;8.72;100.00;101490.19;5045599;28;20452;-55
2022/02/09 06:59:29;;;;;;;0.23;0.20;;;;;;;8.81;100.00;101482.25;5041969;28;21008;-54
2022/02/09 07:02:02;;;;;;;0.30;0.20;;;;;;;8.82;100.00;101479.59;5046065;28;20451;-54
2022/02/09 07:04:28;;;;;;;0.30;0.20;;;;;;;8.80;100.00;101486.66;5049108;28;20872;-54
2022/02/09 07:06:56;;;;;;;0.30;0.20;;;;;;;8.76;100.00;101490.19;5047161;28;20826;-54
2022/02/09 07:09:24;;;;;;;0.30;0.20;;;;;;;8.84;100.00;101491.06;5042943;28;20544;-55
2022/02/09 07:11:51;;;;;;;0.30;0.20;;;;;;;8.91;100.00;101489.28;5045235;28;20481;-54
2022/02/09 07:14:23;;;;;;;0.50;0.50;;;;;;;8.83;100.00;101485.75;5048924;28;20888;-54
2022/02/09 07:16:50;;;;;;;0.20;0.10;;;;;;;8.86;100.00;101488.41;5048551;28;20439;-54
2022/02/09 07:19:16;;;;;;;0.30;0.20;;;;;;;8.86;100.00;101483.97;5049370;28;20908;-55
2022/02/09 07:21:43;;;;;;;0.30;0.20;;;;;;;8.78;100.00;101484.91;5040778;28;20505;-54
2022/02/09 07:24:14;;;;;;;0.30;0.20;;;;;;;8.77;100.00;101486.69;5048965;28;20451;-55
2022/02/09 07:26:49;;;;;;;0.30;0.20;;;;;;;8.86;100.00;101489.28;5048789;28;20840;-55
2022/02/09 07:29:18;;;;;;;0.30;0.20;;;;;;;8.85;100.00;101490.16;5043931;28;20498;-54
2022/02/09 07:31:45;;;;;;;0.50;0.50;;;;;;;8.78;100.00;101490.22;5041910;28;20447;-55
2022/02/09 07:34:14;;;;;;;0.50;0.50;;;;;;;8.84;100.00;101484.88;5046443;28;20448;-54
2022/02/09 07:36:45;;;;;;;0.30;0.30;;;;;;;8.95;100.00;101476.91;5040274;28;20447;-55
2022/02/09 07:39:13;;;;;;;0.30;0.20;;;;;;;8.92;100.00;101479.56;5045409;28;20521;-54
2022/02/09 07:41:42;;;;;;;1.33;1.23;;;;;;;9.02;100.00;101482.16;5048675;28;20509;-54
2022/02/09 07:54:02;;;;;;;0.30;0.20;;;;;;;9.13;100.00;101487.44;5047203;28;20470;-54
2022/02/09 07:56:30;;;;;;;0.30;0.20;;;;;;;9.11;100.00;101481.28;5041397;28;20447;-55
2022/02/09 07:58:57;;;;;;;0.30;0.20;;;;;;;9.10;100.00;101491.00;5042467;28;20545;-55
2022/02/09 08:01:24;;;;;;;0.30;0.30;;;;;;;9.03;100.00;101486.59;5048197;28;20801;-55
2022/02/09 08:03:51;;;;;;;0.30;0.20;;;;;;;9.26;100.00;101480.31;5047385;28;20446;-55
2022/02/09 08:06:23;;;;;;;0.30;0.20;;;;;;;9.22;100.00;101481.22;5041224;28;20442;-55
2022/02/09 08:08:52;;;;;;;0.30;0.23;;;;;;;9.20;100.00;101476.81;5040848;28;20444;-55
2022/02/09 08:11:25;;;;;;;0.30;0.20;;;;;;;9.29;100.00;101475.88;5046904;28;20476;-55
2022/02/09 08:32:52;;;;;;;0.30;0.20;;;;;;;9.68;100.00;101463.31;5044042;28;20497;-55
2022/02/09 08:35:19;;;;;;;0.37;0.37;;;;;;;9.66;100.00;101462.44;5047424;28;20880;-54
2022/02/09 08:37:46;;;;;;;0.30;0.20;;;;;;;9.84;100.00;101458.78;5045682;28;20497;-55
2022/02/09 08:40:17;;;;;;;0.43;0.43;;;;;;;9.77;100.00;101445.56;5040883;28;20525;-55
2022/02/09 08:42:44;;;;;;;0.30;0.20;;;;;;;9.82;100.00;101452.59;5041953;28;20506;-55
2022/02/09 08:45:11;;;;;;;0.30;0.20;;;;;;;9.91;100.00;101449.88;5047452;28;20480;-55
2022/02/09 08:47:49;;;;;;;0.30;0.20;;;;;;;9.85;100.00;101449.91;5047354;28;21037;-55
2022/02/09 08:50:16;;;;;;;0.30;0.20;;;;;;;10.05;100.00;101454.19;5041435;28;20466;-55
2022/02/09 08:52:42;;;;;;;0.30;0.17;;;;;;;10.02;100.00;101454.22;5040480;28;20529;-55
2022/02/09 08:55:09;;;;;;;0.30;0.20;;;;;;;9.99;100.00;101440.94;5046223;28;20451;-55
2022/02/09 08:57:36;;;;;;;0.30;0.20;;;;;;;10.18;100.00;101447.00;5047270;28;20507;-54
2022/02/09 09:00:17;;;;;;;0.30;0.20;;;;;;;10.10;100.00;101446.19;5041799;28;20549;-54
2022/02/09 09:02:48;;;;;;;2.60;1.30;;;;;;;10.03;100.00;101447.16;5040233;28;20443;-55
2022/02/09 09:05:27;;;;;;;0.30;0.20;;;;;;;10.00;100.00;101444.47;5043148;28;20448;-55
2022/02/09 09:08:07;;;;;;;0.30;0.20;;;;;;;10.11;100.00;101445.28;5047056;28;20468;-54
2022/02/09 09:10:44;;;;;;;0.30;0.20;;;;;;;10.23;100.00;101445.22;5046866;28;20514;-55
2022/02/09 10:34:00;;;;;;;0.30;0.20;;;;;;;11.20;98.92;101416.69;5044861;28;20444;-54
2022/02/09 10:36:27;;;;;;;0.30;0.20;;;;;;;11.21;99.51;101410.47;5034938;28;20487;-54
2022/02/09 10:39:08;;;;;;;0.60;0.60;;;;;;;11.48;98.38;101414.53;5044867;28;20487;-54
2022/02/09 10:41:43;;;;;;;0.30;0.20;;;;;;;11.53;97.99;101401.19;5045373;28;20452;-54
2022/02/09 10:44:14;;;;;;;0.30;0.20;;;;;;;11.76;97.94;101392.81;5042977;28;20492;-54
2022/02/09 10:46:52;;;;;;;0.40;0.30;;;;;;;12.00;96.43;101395.13;5038714;28;20962;-54
2022/02/09 10:49:22;;;;;;;0.30;0.20;;;;;;;11.83;96.82;101386.53;5039208;28;20463;-54
2022/02/09 10:54:26;;;;;;;0.30;0.20;;;;;;;11.67;96.03;101375.22;5038656;28;20493;-54
2022/02/09 10:56:57;;;;;;;0.30;0.20;;;;;;;11.77;95.44;101378.59;5043181;28;20475;-54
2022/02/09 10:59:29;;;;;;;0.30;0.20;;;;;;;11.92;95.52;101375.72;5044811;28;20495;-54
2022/02/09 11:01:58;;;;;;;0.30;0.20;;;;;;;11.90;95.35;101363.31;5042512;28;20447;-54
2022/02/09 11:04:24;;;;;;;0.30;0.20;;;;;;;11.71;95.94;101366.25;5038493;28;20490;-54
2022/02/09 11:06:52;;;;;;;0.40;0.40;;;;;;;11.49;96.32;101367.50;5048375;28;20451;-54
2022/02/09 11:09:28;;;;;;;0.30;0.20;;;;;;;11.88;95.86;101357.16;5038183;28;20463;-54
2022/02/09 11:11:55;;;;;;;0.43;0.40;;;;;;;11.89;95.26;101350.91;5039010;28;20875;-55
2022/02/09 11:14:24;;;;;;;0.30;0.20;;;;;;;11.91;96.31;101355.31;5045193;28;20459;-54
2022/02/09 11:16:51;;;;;;;0.30;0.20;;;;;;;12.01;95.09;101346.25;5032223;28;20964;-54
2022/02/09 11:19:25;;;;;;;0.30;0.20;;;;;;;11.98;94.86;101340.97;5045035;28;20491;-54
2022/02/09 11:22:06;;;;;;;0.30;0.20;;;;;;;12.12;94.87;101346.06;5036693;28;20476;-55
2022/02/09 11:24:32;;;;;;;0.30;0.20;;;;;;;12.37;93.11;101344.72;5042665;28;20448;-54
2022/02/09 11:27:17;;;;;;;0.30;0.20;;;;;;;12.55;92.30;101332.81;5045085;28;20447;-55
2022/02/09 11:30:02;;;;;;;0.47;0.47;;;;;;;12.82;91.92;101328.69;5043418;28;20462;-55
2022/02/09 11:32:42;;;;;;;0.30;0.20;;;;;;;12.63;91.84;101330.88;5027648;28;20527;-55
2022/02/09 11:43:18;;;;;;;0.30;0.20;;;;;;;13.07;90.46;101323.72;5038111;28;20451;-55
2022/02/09 12:11:25;;;;;;;0.30;0.20;;;;;;;12.98;90.43;101297.22;5039094;28;20538;-55
2022/02/09 12:14:00;;;;;;;0.30;0.20;;;;;;;13.12;90.26;101287.09;5047768;28;20504;-55
2022/02/09 12:19:10;;;;;;;0.30;0.20;;;;;;;13.32;89.11;101279.53;5050377;28;20544;-55
2022/02/09 12:21:53;;;;;;;0.30;0.20;;;;;;;13.37;87.09;101275.88;5039418;28;20447;-55
2022/02/09 12:24:27;;;;;;;0.30;0.20;;;;;;;13.40;88.36;101278.47;5029875;28;20446;-55
2022/02/09 12:26:57;;;;;;;0.30;0.20;;;;;;;13.55;87.83;101265.59;5040924;28;20443;-55
2022/02/09 12:29:29;;;;;;;0.30;0.20;;;;;;;13.74;87.54;101260.69;5045277;28;20468;-55
2022/02/09 12:31:56;;;;;;;0.30;0.20;;;;;;;13.71;87.02;101268.78;5047642;28;20470;-55
2022/02/09 12:34:24;;;;;;;0.30;0.20;;;;;;;13.79;87.24;101258.75;5044078;28;20481;-55
2022/02/09 12:36:55;;;;;;;0.30;0.20;;;;;;;13.79;86.24;101253.41;5040748;28;20876;-55
2022/02/09 12:39:23;;;;;;;0.30;0.20;;;;;;;13.70;86.30;101258.13;5042914;28;20492;-55
2022/02/09 12:41:52;;;;;;;0.30;0.20;;;;;;;13.62;87.12;101248.53;5047467;28;20447;-55
2022/02/09 12:44:23;;;;;;;0.30;0.20;;;;;;;13.71;86.50;101235.84;5046164;28;20446;-55
2022/02/09 12:46:50;;;;;;;0.40;0.30;;;;;;;13.79;86.21;101236.50;5039481;28;20490;-55
2022/02/09 12:49:18;;;;;;;0.30;0.20;;;;;;;13.86;86.01;101232.78;5041315;28;20472;-55
2022/02/09 12:51:48;;;;;;;0.30;0.20;;;;;;;13.82;86.41;101233.75;5047133;28;20452;-55
2022/02/09 12:54:16;;;;;;;0.30;0.20;;;;;;;13.89;85.71;101227.34;5047499;28;20446;-55
2022/02/09 12:56:48;;;;;;;0.73;0.73;;;;;;;13.73;85.69;101220.66;5041342;28;20477;-55
2022/02/09 12:59:17;;;;;;;0.30;0.20;;;;;;;13.66;85.34;101224.38;5040043;28;20484;-55
2022/02/09 13:01:47;;;;;;;0.30;0.20;;;;;;;13.73;84.77;101213.50;5045250;28;20470;-55
2022/02/09 13:04:34;;;;;;;0.30;0.20;;;;;;;13.56;86.26;101219.28;5046991;28;20932;-55
2022/02/09 13:07:04;;;;;;;0.30;0.20;;;;;;;13.48;87.69;101212.41;5045440;28;20450;-55
2022/02/09 13:09:32;;;;;;;0.30;0.20;;;;;;;13.59;86.77;101213.00;5040515;28;20972;-55
2022/02/09 13:11:59;;;;;;;0.30;0.20;;;;;;;13.85;86.12;101213.19;5041058;28;20459;-55
2022/02/09 13:14:32;;;;;;;0.30;0.20;;;;;;;13.70;86.33;101204.69;5046658;28;20451;-55
2022/02/09 14:54:57;;;;;;;0.30;0.20;;;;;;;14.91;78.98;101103.00;5028632;28;20448;-56
2022/02/09 14:57:29;;;;;;;0.30;0.20;;;;;;;14.68;79.01;101101.09;5040188;28;20444;-56
2022/02/09 15:08:06;;;;;;;6.33;1.30;;;;;;;14.61;79.79;101089.69;5045150;28;20482;-56
2022/02/09 15:11:04;;;;;;;0.33;0.27;;;;;;;14.52;80.01;101095.34;5045154;28;20500;-56
2022/02/09 15:23:51;;;;;;;0.30;0.20;;;;;;;14.68;79.12;101088.59;5048674;28;20447;-56
2022/02/09 15:26:22;;;;;;;0.30;0.20;;;;;;;14.57;79.46;101093.41;5045034;28;20450;-56
2022/02/09 15:28:51;;;;;;;0.30;0.20;;;;;;;14.46;79.47;101095.56;5042213;28;20476;-56
2022/02/09 15:31:25;;;;;;;0.30;0.20;;;;;;;14.32;79.34;101092.41;5043399;28;20471;-56
2022/02/09 15:34:02;;;;;;;0.30;0.20;;;;;;;14.40;79.14;101091.25;5048430;28;21019;-56
2022/02/09 15:37:00;;;;;;;0.30;0.20;;;;;;;14.20;79.83;101089.19;5039825;28;20466;-56
2022/02/09 15:39:18;;;;;;;0.30;0.20;;;;;;;14.20;79.65;101082.94;5044537;28;21052;-56
2022/02/09 15:42:03;;;;;;;0.30;0.20;;;;;;;14.22;79.93;101087.31;5048849;28;20491;-56
2022/02/09 16:09:21;;;;;;;0.30;0.20;;;;;;;13.40;83.00;101060.34;5041422;28;20500;-58
2022/02/09 16:20:08;;;;;;;0.30;0.20;;;;;;;13.19;83.07;101079.66;5046904;28;20836;-58
2022/02/09 16:22:32;;;;;;;0.30;0.20;;;;;;;13.01;84.08;101072.94;5043109;28;20443;-58
2022/02/09 16:33:20;;;;;;;0.30;0.20;;;;;;;12.70;86.30;101078.19;5042548;28;20448;-57
2022/02/09 16:46:39;;;;;;;0.30;0.20;;;;;;;12.26;88.58;101079.25;5040538;28;20506;-57
2022/02/09 16:49:22;;;;;;;0.30;0.20;;;;;;;12.22;89.22;101085.56;5043600;28;20448;-57
2022/02/09 16:52:27;;;;;;;0.30;0.30;;;;;;;11.94;90.51;101091.50;5047378;28;20447;-57
2022/02/09 17:18:52;;;;;;;1.73;1.13;;;;;;;9.89;97.54;101091.41;5047042;28;20481;-55
2022/02/09 17:21:20;;;;;;;0.30;0.20;;;;;;;9.69;98.54;101099.59;5038495;28;20537;-55
2022/02/09 17:23:50;;;;;;;0.30;0.20;;;;;;;9.59;99.06;101102.34;5047129;28;20460;-55
2022/02/09 17:26:17;;;;;;;0.30;0.20;;;;;;;9.42;98.99;101098.13;5043365;28;20475;-55
2022/02/09 17:28:56;;;;;;;0.50;0.50;;;;;;;9.15;100.00;101104.59;5039980;28;20494;-56
2022/02/09 17:34:05;;;;;;;0.30;0.20;;;;;;;8.88;100.00;101095.13;5046760;28;20456;-55
2022/02/09 17:39:19;;;;;;;0.30;0.20;;;;;;;8.61;100.00;101075.00;5045694;28;20452;-55
2022/02/09 17:58:12;;;;;;;0.30;0.20;;;;;;;8.01;100.00;101093.06;5039289;28;20492;-55
2022/02/09 18:00:39;;;;;;;0.30;0.20;;;;;;;7.96;100.00;101089.56;5040985;28;20491;-55
2022/02/09 18:03:06;;;;;;;0.30;0.20;;;;;;;7.83;100.00;101097.56;5046402;28;20447;-55
2022/02/09 18:05:45;;;;;;;0.40;0.20;;;;;;;7.82;100.00;101088.75;5041180;28;20826;-55
2022/02/09 18:59:48;;;;;;;0.30;0.20;;;;;;;6.82;100.00;101082.81;5042803;28;20845;-55
2022/02/09 19:05:15;;;;;;;0.30;0.20;;;;;;;6.66;100.00;101072.25;5045408;28;20947;-55
2022/02/09 19:40:41;;;;;;;0.30;0.20;;;;;;;5.85;100.00;101075.59;5041405;28;20462;-51
2022/02/09 19:49:04;;;;;;;0.30;0.20;;;;;;;5.82;100.00;101059.75;5033243;28;20450;-51
2022/02/09 19:52:05;;;;;;;0.30;0.20;;;;;;;5.88;100.00;101067.69;5041555;28;20458;-51
2022/02/09 19:54:43;;;;;;;0.30;0.20;;;;;;;5.98;100.00;101060.72;5042031;28;20479;-51
2022/02/09 19:57:12;;;;;;;0.30;0.20;;;;;;;5.84;100.00;101063.28;5044444;28;20950;-52
2022/02/09 19:59:40;;;;;;;0.30;0.20;;;;;;;5.87;100.00;101062.41;5048252;28;20467;-51
2022/02/09 20:02:08;;;;;;;0.30;0.20;;;;;;;5.84;100.00;101068.56;5046153;28;20486;-51
2022/02/09 20:04:36;;;;;;;0.30;0.20;;;;;;;5.91;100.00;101066.88;5040929;28;20845;-51
2022/02/09 20:07:03;;;;;;;0.30;0.20;;;;;;;5.69;100.00;101068.50;5049573;28;20447;-51
2022/02/09 20:09:30;;;;;;;0.30;0.10;;;;;;;5.45;100.00;101069.28;5041187;28;20447;-50
2022/02/09 20:11:56;;;;;;;0.30;0.20;;;;;;;5.41;100.00;101064.88;5043192;28;20466;-51
2022/02/09 20:14:23;;;;;;;0.20;0.17;;;;;;;5.37;100.00;101068.38;5048204;28;20448;-51
2022/02/09 20:16:50;;;;;;;0.70;0.63;;;;;;;5.33;100.00;101069.22;5047317;28;21025;-51
2022/02/09 20:19:17;;;;;;;0.30;0.10;;;;;;;5.31;100.00;101071.84;5048448;28;20455;-50
2022/02/09 20:21:44;;;;;;;0.30;0.20;;;;;;;5.21;100.00;101070.06;5039267;28;20561;-51
2022/02/09 20:24:14;;;;;;;0.30;0.20;;;;;;;5.25;100.00;101074.47;5048311;28;20470;-51
2022/02/09 20:26:42;;;;;;;0.40;0.40;;;;;;;5.26;100.00;101068.31;5047836;28;20470;-50
2022/02/09 20:29:14;;;;;;;0.30;0.13;;;;;;;5.28;100.00;101066.56;5041384;28;20982;-51
2022/02/09 20:31:48;;;;;;;0.30;0.20;;;;;;;5.10;100.00;101061.19;5040974;28;20476;-50
2022/02/09 20:34:38;;;;;;;0.20;0.20;;;;;;;5.18;100.00;101061.22;5045579;28;20505;-51
2022/02/09 20:37:06;;;;;;;0.30;0.20;;;;;;;5.11;100.00;101062.06;5042005;28;20442;-51
2022/02/09 20:39:40;;;;;;;0.30;0.20;;;;;;;4.93;100.00;101062.81;5041910;28;20452;-51
2022/02/09 20:42:14;;;;;;;0.37;0.37;;;;;;;4.82;100.00;101054.88;5040896;28;20486;-51
2022/02/09 20:44:49;;;;;;;0.20;0.10;;;;;;;4.90;100.00;101058.41;5040698;28;20452;-51
2022/02/09 20:47:15;;;;;;;0.20;0.10;;;;;;;4.83;100.00;101055.75;5045457;28;20443;-51
2022/02/09 20:49:42;;;;;;;0.20;0.20;;;;;;;4.88;100.00;101060.16;5047504;28;20524;-51
2022/02/09 20:52:11;;;;;;;0.40;0.30;;;;;;;4.90;100.00;101066.31;5043153;28;20478;-51
2022/02/09 20:54:38;;;;;;;0.30;0.10;;;;;;;4.74;100.00;101061.81;5040705;28;20458;-51
2022/02/09 20:57:04;;;;;;;0.20;0.10;;;;;;;4.57;100.00;101066.06;5045222;28;20499;-51
2022/02/09 20:59:37;;;;;;;0.20;0.10;;;;;;;4.59;100.00;101065.22;5047548;28;20998;-51
2022/02/09 21:02:19;;;;;;;0.30;0.30;;;;;;;4.42;100.00;101069.47;5044407;28;20483;-51
2022/02/09 21:04:48;;;;;;;0.20;0.20;;;;;;;4.52;100.00;101080.94;5040423;28;20446;-51
2022/02/09 21:07:31;;;;;;;0.20;0.20;;;;;;;4.25;100.00;101066.69;5048769;28;20930;-51
2022/02/09 21:12:54;;;;;;;0.50;0.50;;;;;;;4.34;100.00;101064.09;5006672;28;20451;-50
2022/02/09 21:15:50;;;;;;;0.20;0.20;;;;;;;4.10;100.00;101062.13;5041227;28;20860;-50
2022/02/09 21:26:28;;;;;;;0.20;0.10;;;;;;;4.00;100.00;101056.78;5041344;28;20443;-51
2022/02/09 21:32:06;;;;;;;0.20;0.10;;;;;;;3.83;100.00;101052.19;5042099;28;20464;-51
2022/02/09 21:45:39;;;;;;;0.30;0.20;;;;;;;3.44;100.00;101043.84;5048187;28;20486;-51
2022/02/09 22:32:26;;;;;;;0.20;0.10;;;;;;;3.22;100.00;100992.78;5045813;28;20443;-51
2022/02/09 22:56:07;;;;;;;0.20;0.10;;;;;;;2.73;100.00;100968.47;5039055;28;20883;-51
2022/02/09 22:58:34;;;;;;;0.20;0.10;;;;;;;2.56;100.00;100975.22;5043543;28;20478;-51
2022/02/09 23:01:13;;;;;;;0.20;0.10;;;;;;;2.59;100.00;100975.28;5045595;28;20979;-51
2022/02/09 23:14:33;;;;;;;0.30;0.20;;;;;;;2.84;100.00;100966.88;5045587;28;20474;-52
